Time;durP1;ratioP1;P1;durP2;ratioP2;P2;SDS_P1;SDS_P2;PMS_P1;PMS_P2;Temp;Humidity;BMP_temperature;BMP_pressure;BME280_temperature;BME280_humidity;BME280_pressure;Samples;Min_cycle;Max_cycle;Signal;HPM_P1;HPM_P2
2022/04/19 00:00:15;;;;;;;4.03;3.60;;;;;;;-143.37;100.00;62585.38;5020992;28;20463;-76
2022/04/19 00:02:50;;;;;;;4.63;3.87;;;;;;;-143.37;100.00;62585.38;5012088;28;20449;-76
2022/04/19 00:05:26;;;;;;;4.53;3.40;;;;;;;-143.37;100.00;62585.38;5019590;28;20445;-76
2022/04/19 00:08:02;;;;;;;3.80;3.40;;;;;;;-143.37;100.00;62585.38;5011078;28;20526;-76
2022/04/19 00:10:38;;;;;;;4.13;3.70;;;;;;;-143.37;100.00;62585.38;5013278;28;20571;-76
2022/04/19 00:13:16;;;;;;;4.87;4.37;;;;;;;-143.37;100.00;62585.38;4993540;28;20432;-76
2022/04/19 00:15:55;;;;;;;4.20;3.80;;;;;;;-143.37;100.00;62585.38;5005362;28;20932;-75
2022/04/19 00:18:32;;;;;;;3.90;3.60;;;;;;;-143.37;100.00;62585.38;5003720;28;20528;-76
2022/04/19 00:21:11;;;;;;;4.57;3.80;;;;;;;-143.37;100.00;62585.38;5005961;28;20476;-76
2022/04/19 00:23:47;;;;;;;4.40;3.97;;;;;;;-143.37;100.00;62585.38;5008174;28;20432;-76
2022/04/19 00:26:23;;;;;;;4.23;3.80;;;;;;;-143.37;100.00;62585.38;5003705;28;20920;-76
2022/04/19 00:28:59;;;;;;;4.47;3.70;;;;;;;-143.37;100.00;62585.38;5005304;28;20444;-75
2022/04/19 00:31:37;;;;;;;4.37;3.97;;;;;;;-143.37;100.00;62585.38;5008803;28;20467;-76
2022/04/19 00:34:12;;;;;;;5.50;4.47;;;;;;;-143.37;100.00;62585.38;4999148;28;20448;-76
2022/04/19 00:36:48;;;;;;;4.90;3.57;;;;;;;-143.37;100.00;62585.38;4988942;28;20532;-76
2022/04/19 00:39:23;;;;;;;4.77;3.60;;;;;;;-143.37;100.00;62585.38;5005694;28;20450;-76
2022/04/19 00:42:00;;;;;;;4.90;3.97;;;;;;;-143.37;100.00;62585.38;5007335;28;20462;-76
2022/04/19 00:44:37;;;;;;;4.80;4.33;;;;;;;-143.37;100.00;62585.38;5013022;28;20447;-76
2022/04/19 00:47:15;;;;;;;4.27;3.87;;;;;;;-143.37;100.00;62585.38;5005712;28;20436;-75
2022/04/19 00:49:52;;;;;;;3.90;3.50;;;;;;;-143.37;100.00;62585.38;5008075;28;20962;-75
2022/04/19 00:52:29;;;;;;;4.40;4.00;;;;;;;-143.37;100.00;62585.38;4990356;28;20441;-76
2022/04/19 00:55:07;;;;;;;4.10;3.70;;;;;;;-143.37;100.00;62585.38;5012106;28;20456;-75
2022/04/19 00:57:46;;;;;;;4.20;3.80;;;;;;;-143.37;100.00;62585.38;4988501;28;20803;-76
2022/04/19 01:00:24;;;;;;;3.97;3.57;;;;;;;-143.37;100.00;62585.38;4987647;28;20564;-76
2022/04/19 01:03:18;;;;;;;4.07;3.70;;;;;;;-143.37;100.00;62585.38;5012190;28;20445;-76
2022/04/19 01:05:55;;;;;;;4.07;3.50;;;;;;;-143.37;100.00;62585.38;5003937;28;20932;-76
2022/04/19 01:08:31;;;;;;;5.37;3.53;;;;;;;-143.37;100.00;62585.38;5004339;28;20437;-76
2022/04/19 01:14:08;;;;;;;4.60;3.90;;;;;;;-143.37;100.00;62585.38;4992213;28;20471;-75
2022/04/19 01:19:47;;;;;;;4.57;3.57;;;;;;;-143.37;100.00;62585.38;5084517;28;20749;-76
2022/04/19 01:22:28;;;;;;;4.40;4.00;;;;;;;-143.37;100.00;62585.38;5064344;28;20441;-76
2022/04/19 01:25:05;;;;;;;5.23;4.70;;;;;;;-143.37;100.00;62585.38;5068139;28;20441;-75
2022/04/19 01:27:42;;;;;;;4.60;4.20;;;;;;;-143.37;100.00;62585.38;5055550;28;20777;-75
2022/04/19 01:30:19;;;;;;;4.20;3.80;;;;;;;-143.37;100.00;62585.38;5052944;28;20465;-75
2022/04/19 01:32:57;;;;;;;5.03;4.50;;;;;;;-143.37;100.00;62585.38;5047847;28;20457;-76
2022/04/19 01:35:33;;;;;;;5.70;5.20;;;;;;;-143.37;100.00;62585.38;5061022;28;20450;-75
2022/04/19 01:38:10;;;;;;;5.27;4.77;;;;;;;-143.37;100.00;62585.38;5068319;28;20800;-76
2022/04/19 01:40:48;;;;;;;5.10;4.60;;;;;;;-143.37;100.00;62585.38;5054882;28;20429;-76
2022/04/19 01:43:50;;;;;;;5.50;5.00;;;;;;;-143.37;100.00;62585.38;5036022;28;20448;-76
2022/04/19 01:46:26;;;;;;;6.20;5.13;;;;;;;-143.37;100.00;62585.38;5052567;28;20440;-76
2022/04/19 01:49:03;;;;;;;9.13;4.83;;;;;;;-143.37;100.00;62585.38;5051466;28;20434;-75
2022/04/19 01:51:42;;;;;;;5.20;4.70;;;;;;;-143.37;100.00;62585.38;5065721;28;20478;-76
2022/04/19 01:54:19;;;;;;;6.27;4.77;;;;;;;-143.37;100.00;62585.38;5050956;28;20453;-76
2022/04/19 01:56:59;;;;;;;5.27;4.77;;;;;;;-143.37;100.00;62585.38;5050254;28;20588;-76
2022/04/19 01:59:56;;;;;;;5.60;5.00;;;;;;;-143.37;100.00;62585.38;5060959;28;20434;-76
2022/04/19 02:02:55;;;;;;;5.27;4.77;;;;;;;-143.37;100.00;62585.38;5060930;28;20446;-76
2022/04/19 02:05:33;;;;;;;5.47;4.83;;;;;;;-143.37;100.00;62585.38;5045507;28;21017;-76
2022/04/19 02:08:12;;;;;;;5.97;4.60;;;;;;;-143.37;100.00;62585.38;5057478;28;20959;-75
2022/04/19 02:10:50;;;;;;;5.90;4.73;;;;;;;-143.37;100.00;62585.38;5045747;28;20456;-76
2022/04/19 02:13:31;;;;;;;6.10;4.97;;;;;;;-143.37;100.00;62585.38;5060932;28;20453;-76
2022/04/19 02:16:23;;;;;;;5.43;4.67;;;;;;;-143.37;100.00;62585.38;5064990;28;20472;-76
2022/04/19 02:18:59;;;;;;;4.80;4.20;;;;;;;-143.37;100.00;62585.38;5044975;28;20474;-75
2022/04/19 02:21:35;;;;;;;6.03;4.70;;;;;;;-143.37;100.00;62585.38;5043430;28;20442;-76
2022/04/19 02:24:12;;;;;;;5.90;5.17;;;;;;;-143.37;100.00;62585.38;5047943;28;20452;-76
2022/04/19 02:26:50;;;;;;;5.50;4.77;;;;;;;-143.37;100.00;62585.38;5046023;28;20433;-76
2022/04/19 02:29:30;;;;;;;5.83;5.07;;;;;;;-143.37;100.00;62585.38;5048913;28;20546;-76
2022/04/19 02:32:07;;;;;;;5.47;4.97;;;;;;;-143.37;100.00;62585.38;5044218;28;20469;-76
2022/04/19 02:34:42;;;;;;;6.60;4.50;;;;;;;-143.37;100.00;62585.38;5042847;28;20966;-76
2022/04/19 02:37:19;;;;;;;5.63;4.83;;;;;;;-143.37;100.00;62585.38;5042743;28;20446;-76
2022/04/19 02:39:56;;;;;;;6.90;5.20;;;;;;;-143.37;100.00;62585.38;5053792;28;20523;-76
2022/04/19 02:42:33;;;;;;;9.63;5.20;;;;;;;-143.37;100.00;62585.38;5043911;28;20429;-76
2022/04/19 02:45:12;;;;;;;5.23;4.60;;;;;;;-143.37;100.00;62585.38;5048625;28;20437;-76
2022/04/19 02:48:01;;;;;;;5.23;4.73;;;;;;;-143.37;100.00;62585.38;5051669;28;20449;-75
2022/04/19 02:50:41;;;;;;;4.93;4.50;;;;;;;-143.37;100.00;62585.38;5065294;28;20661;-75
2022/04/19 02:53:17;;;;;;;9.50;4.50;;;;;;;-143.37;100.00;62585.38;5060563;28;20437;-76
2022/04/19 02:55:53;;;;;;;5.07;4.57;;;;;;;-143.37;100.00;62585.38;5046833;28;20442;-76
2022/04/19 02:58:30;;;;;;;4.80;4.30;;;;;;;-143.37;100.00;62585.38;5067368;28;20452;-75
2022/04/19 03:01:07;;;;;;;5.00;4.00;;;;;;;-143.37;100.00;62585.38;5052450;28;20429;-76
2022/04/19 03:03:43;;;;;;;5.40;4.37;;;;;;;-143.37;100.00;62585.38;5054049;28;20441;-76
2022/04/19 03:06:21;;;;;;;5.37;4.63;;;;;;;-143.37;100.00;62585.38;5049203;28;20449;-75
2022/04/19 03:08:57;;;;;;;5.43;4.93;;;;;;;-143.37;100.00;62585.38;5050445;28;20457;-75
2022/04/19 03:11:48;;;;;;;4.90;4.50;;;;;;;-143.37;100.00;62585.38;5087748;28;21000;-75
2022/04/19 03:14:25;;;;;;;5.03;4.53;;;;;;;-143.37;100.00;62585.38;5085491;28;20461;-75
2022/04/19 03:17:01;;;;;;;4.60;4.20;;;;;;;-143.37;100.00;62585.38;5067894;28;20774;-74
2022/04/19 03:19:37;;;;;;;4.90;4.40;;;;;;;-143.37;100.00;62585.38;5048705;28;20909;-75
2022/04/19 03:22:13;;;;;;;6.33;4.50;;;;;;;-143.37;100.00;62585.38;5052732;28;20461;-75
2022/04/19 03:27:47;;;;;;;7.43;5.10;;;;;;;-143.37;100.00;62585.38;5053044;28;21002;-75
2022/04/19 03:30:29;;;;;;;4.93;4.40;;;;;;;-143.37;100.00;62585.38;5051531;28;20429;-75
2022/04/19 03:33:06;;;;;;;4.80;3.93;;;;;;;-143.37;100.00;62585.38;5050126;28;20445;-75
2022/04/19 03:35:43;;;;;;;4.67;4.00;;;;;;;-143.37;100.00;62585.38;5048364;28;20439;-76
2022/04/19 03:38:22;;;;;;;8.00;4.13;;;;;;;-143.37;100.00;62585.38;5050104;28;20457;-75
2022/04/19 03:40:58;;;;;;;6.20;4.70;;;;;;;-143.37;100.00;62585.38;5048855;28;20442;-76
2022/04/19 03:43:34;;;;;;;4.97;4.13;;;;;;;-143.37;100.00;62585.38;5064429;28;20446;-74
2022/04/19 03:46:14;;;;;;;4.70;4.23;;;;;;;-143.37;100.00;62585.38;5050393;28;20448;-75
2022/04/19 03:48:50;;;;;;;7.10;4.10;;;;;;;-143.37;100.00;62585.38;5053749;28;20446;-75
2022/04/19 03:51:26;;;;;;;4.37;3.97;;;;;;;-143.37;100.00;62585.38;5049182;28;20480;-75
2022/04/19 03:54:01;;;;;;;4.87;4.17;;;;;;;-143.37;100.00;62585.38;5050658;28;20807;-75
2022/04/19 03:56:37;;;;;;;5.57;5.00;;;;;;;-143.37;100.00;62585.38;5050516;28;20449;-75
2022/04/19 03:59:13;;;;;;;4.70;4.30;;;;;;;-143.37;100.00;62585.38;5052161;28;20452;-76
2022/04/19 04:01:50;;;;;;;5.57;4.60;;;;;;;-143.37;100.00;62585.38;5055197;28;20433;-75
2022/04/19 04:04:30;;;;;;;5.00;4.50;;;;;;;-143.37;100.00;62585.38;5057136;28;20496;-75
2022/04/19 04:07:09;;;;;;;5.50;4.90;;;;;;;-143.37;100.00;62585.38;5052682;28;20438;-75
2022/04/19 04:09:46;;;;;;;5.77;4.80;;;;;;;-143.37;100.00;62585.38;5053724;28;20428;-75
2022/04/19 04:12:23;;;;;;;5.17;4.70;;;;;;;-143.37;100.00;62585.38;5053801;28;20556;-75
2022/04/19 04:15:00;;;;;;;5.40;4.90;;;;;;;-143.37;100.00;62585.38;5070458;28;20946;-75
2022/04/19 04:17:38;;;;;;;6.40;5.33;;;;;;;-143.37;100.00;62585.38;5057566;28;20480;-75
2022/04/19 04:20:14;;;;;;;5.10;4.60;;;;;;;-143.37;100.00;62585.38;5051933;28;20913;-75
2022/04/19 04:22:49;;;;;;;7.43;5.10;;;;;;;-143.37;100.00;62585.38;5054800;28;20459;-75
2022/04/19 04:25:25;;;;;;;6.70;5.03;;;;;;;-143.37;100.00;62585.38;5052672;28;20935;-75
2022/04/19 04:28:01;;;;;;;7.00;5.30;;;;;;;-143.37;100.00;62585.38;5074377;28;20523;-75
2022/04/19 04:30:47;;;;;;;5.00;4.50;;;;;;;-143.37;100.00;62585.38;5053135;28;20461;-75
2022/04/19 04:33:25;;;;;;;4.97;4.40;;;;;;;-143.37;100.00;62585.38;5052421;28;20449;-75
2022/04/19 04:36:02;;;;;;;5.00;4.27;;;;;;;-143.37;100.00;62585.38;5051010;28;20433;-75
2022/04/19 04:38:37;;;;;;;4.83;4.10;;;;;;;-143.37;100.00;62585.38;5054728;28;20450;-75
2022/04/19 04:41:18;;;;;;;5.27;4.77;;;;;;;-143.37;100.00;62585.38;5053274;28;20444;-75
2022/04/19 04:43:54;;;;;;;5.83;5.00;;;;;;;-143.37;100.00;62585.38;5052754;28;20440;-75
2022/04/19 04:49:39;;;;;;;5.80;4.80;;;;;;;-143.37;100.00;62585.38;5059851;28;20445;-75
2022/04/19 04:52:18;;;;;;;5.40;4.90;;;;;;;-143.37;100.00;62585.38;5054309;28;20559;-75
2022/04/19 04:54:54;;;;;;;7.37;6.30;;;;;;;-143.37;100.00;62585.38;5065135;28;20420;-76
2022/04/19 04:57:35;;;;;;;5.10;4.53;;;;;;;-143.37;100.00;62585.38;5067185;28;20445;-75
2022/04/19 05:00:12;;;;;;;5.63;4.90;;;;;;;-143.37;100.00;62585.38;5061569;28;20424;-75
2022/04/19 05:03:21;;;;;;;5.77;5.00;;;;;;;-143.37;100.00;62585.38;5062600;28;20800;-75
2022/04/19 05:05:59;;;;;;;5.67;4.23;;;;;;;-143.37;100.00;62585.38;5063201;28;20448;-75
2022/04/19 05:08:35;;;;;;;6.00;4.77;;;;;;;-143.37;100.00;62585.38;5046226;28;20444;-75
2022/04/19 05:11:10;;;;;;;6.97;4.90;;;;;;;-143.37;100.00;62585.38;5044478;28;20472;-75
2022/04/19 05:13:46;;;;;;;5.60;4.83;;;;;;;-143.37;100.00;62585.38;5043816;28;20597;-75
2022/04/19 05:16:23;;;;;;;5.70;4.90;;;;;;;-143.37;100.00;62585.38;5045678;28;20441;-75
2022/04/19 05:18:59;;;;;;;6.47;4.80;;;;;;;-143.37;100.00;62585.38;5047143;28;20990;-75
2022/04/19 05:21:38;;;;;;;6.50;4.93;;;;;;;-143.37;100.00;62585.38;5044337;28;20437;-75
2022/04/19 05:24:14;;;;;;;4.90;4.43;;;;;;;-143.37;100.00;62585.38;5046473;28;20437;-76
2022/04/19 05:26:50;;;;;;;5.10;4.70;;;;;;;-143.37;100.00;62585.38;5051538;28;20529;-75
2022/04/19 05:29:26;;;;;;;8.10;4.93;;;;;;;-143.37;100.00;62585.38;5054696;28;20444;-75
2022/04/19 05:32:02;;;;;;;5.50;5.00;;;;;;;-143.37;100.00;62585.38;5042702;28;20576;-75
2022/04/19 05:34:38;;;;;;;6.00;5.40;;;;;;;-143.37;100.00;62585.38;5053528;28;20459;-75
2022/04/19 05:37:15;;;;;;;6.63;5.20;;;;;;;-143.37;100.00;62585.38;5047603;28;20979;-74
2022/04/19 05:39:51;;;;;;;7.90;4.83;;;;;;;-143.37;100.00;62585.38;5056666;28;20445;-75
2022/04/19 05:42:27;;;;;;;6.00;5.03;;;;;;;-143.37;100.00;62585.38;5051285;28;20425;-74
2022/04/19 05:45:04;;;;;;;5.90;4.40;;;;;;;-143.37;100.00;62585.38;5056216;28;20884;-74
2022/04/19 05:47:42;;;;;;;6.13;5.63;;;;;;;-143.37;100.00;62585.38;5048533;28;20441;-76
2022/04/19 05:50:20;;;;;;;7.10;5.03;;;;;;;-143.37;100.00;62585.38;5051291;28;20449;-75
2022/04/19 05:52:57;;;;;;;7.10;5.70;;;;;;;-143.37;100.00;62585.38;5055367;28;20575;-76
2022/04/19 05:55:33;;;;;;;7.80;5.17;;;;;;;-143.37;100.00;62585.38;5067253;28;20487;-76
2022/04/19 05:58:12;;;;;;;5.07;4.57;;;;;;;-143.37;100.00;62585.38;5051359;28;20810;-75
2022/04/19 06:00:48;;;;;;;7.67;5.70;;;;;;;-143.37;100.00;62585.38;5049749;28;20833;-74
2022/04/19 06:06:22;;;;;;;7.20;5.40;;;;;;;-143.37;100.00;62585.38;5032924;28;20450;-77
2022/04/19 06:09:02;;;;;;;5.47;4.97;;;;;;;-143.37;100.00;62585.38;5062391;28;20935;-75
2022/04/19 06:11:38;;;;;;;5.60;5.13;;;;;;;-143.37;100.00;62585.38;5047052;28;20552;-74
2022/04/19 06:14:13;;;;;;;7.93;6.13;;;;;;;-143.37;100.00;62585.38;5060330;28;20472;-77
2022/04/19 06:16:49;;;;;;;6.57;5.93;;;;;;;-143.37;100.00;62585.38;5049193;28;20940;-75
2022/04/19 06:19:27;;;;;;;6.63;6.00;;;;;;;-143.37;100.00;62585.38;5039218;28;20486;-77
2022/04/19 06:22:03;;;;;;;7.60;6.50;;;;;;;-143.37;100.00;62585.38;5031828;28;20517;-75
2022/04/19 06:24:40;;;;;;;6.77;5.50;;;;;;;-143.37;100.00;62585.38;5029829;28;20967;-76
2022/04/19 06:27:15;;;;;;;11.33;6.60;;;;;;;-143.37;100.00;62585.38;5049390;28;20804;-75
2022/04/19 06:29:52;;;;;;;10.47;5.90;;;;;;;-143.37;100.00;62585.38;5050905;28;20790;-75
2022/04/19 06:32:29;;;;;;;7.20;6.30;;;;;;;-143.37;100.00;62585.38;5033689;28;20505;-75
2022/04/19 06:35:08;;;;;;;11.40;6.50;;;;;;;-143.37;100.00;62585.38;5035175;28;20442;-75
2022/04/19 06:37:44;;;;;;;8.13;5.93;;;;;;;-143.37;100.00;62585.38;5033860;28;20473;-75
2022/04/19 06:40:23;;;;;;;6.37;5.73;;;;;;;-143.37;100.00;62585.38;5051255;28;20462;-75
2022/04/19 06:42:58;;;;;;;7.67;6.27;;;;;;;-143.37;100.00;62585.38;5033392;28;20438;-75
2022/04/19 06:45:37;;;;;;;6.20;5.60;;;;;;;-143.37;100.00;62585.38;5033244;28;20438;-75
2022/04/19 06:48:36;;;;;;;6.40;5.30;;;;;;;-143.37;100.00;62585.38;5032192;28;20454;-75
2022/04/19 06:51:12;;;;;;;8.10;6.30;;;;;;;-143.37;100.00;62585.38;5050469;28;20429;-75
2022/04/19 06:53:48;;;;;;;6.43;5.93;;;;;;;-143.37;100.00;62585.38;5047590;28;20482;-75
2022/04/19 06:56:35;;;;;;;6.37;5.77;;;;;;;-143.37;100.00;62585.38;5032488;28;20956;-75
2022/04/19 06:59:11;;;;;;;6.57;5.87;;;;;;;-143.37;100.00;62585.38;5031602;28;20889;-75
2022/04/19 07:01:48;;;;;;;6.67;6.07;;;;;;;-143.37;100.00;62585.38;5049132;28;20844;-76
2022/04/19 07:04:53;;;;;;;6.50;5.90;;;;;;;-143.37;100.00;62585.38;5049436;28;20433;-75
2022/04/19 07:07:29;;;;;;;8.20;5.80;;;;;;;-143.37;100.00;62585.38;5035413;28;20438;-75
2022/04/19 07:10:06;;;;;;;6.73;5.70;;;;;;;-143.37;100.00;62585.38;5041597;28;20940;-76
2022/04/19 07:12:44;;;;;;;5.70;5.20;;;;;;;-143.37;100.00;62585.38;5032635;28;20464;-76
2022/04/19 07:15:25;;;;;;;5.53;5.03;;;;;;;-143.37;100.00;62585.38;5047459;28;20470;-76
2022/04/19 07:18:01;;;;;;;7.17;5.60;;;;;;;-143.37;100.00;62585.38;5031668;28;20453;-76
2022/04/19 07:26:53;;;;;;;5.77;5.07;;;;;;;-143.37;100.00;62585.38;4964577;28;20445;-76
2022/04/19 07:29:30;;;;;;;5.90;5.30;;;;;;;-143.37;100.00;62585.38;4963527;28;20561;-78
2022/04/19 07:32:07;;;;;;;6.60;5.10;;;;;;;-143.37;100.00;62585.38;5013399;28;20507;-75
2022/04/19 07:35:02;;;;;;;6.90;5.90;;;;;;;-143.37;100.00;62585.38;5011051;28;20451;-75
2022/04/19 07:37:38;;;;;;;7.83;5.90;;;;;;;-143.37;100.00;62585.38;5010492;28;20430;-76
2022/04/19 07:40:14;;;;;;;9.03;5.27;;;;;;;-143.37;100.00;62585.38;5015330;28;20537;-76
2022/04/19 07:42:50;;;;;;;7.17;5.43;;;;;;;-143.37;100.00;62585.38;5012811;28;20451;-76
2022/04/19 07:45:27;;;;;;;6.70;5.53;;;;;;;-143.37;100.00;62585.38;5027237;28;20530;-76
2022/04/19 07:48:06;;;;;;;11.40;6.23;;;;;;;-143.37;100.00;62585.38;5027130;28;20454;-77
2022/04/19 07:50:42;;;;;;;6.53;5.80;;;;;;;-143.37;100.00;62585.38;5025093;28;20438;-76
2022/04/19 07:53:18;;;;;;;6.27;5.47;;;;;;;-143.37;100.00;62585.38;5024445;28;20475;-75
2022/04/19 07:55:57;;;;;;;6.77;5.60;;;;;;;-143.37;100.00;62585.38;5014372;28;20451;-77
2022/04/19 07:58:49;;;;;;;8.40;5.63;;;;;;;-143.37;100.00;62585.38;5013810;28;20458;-77
2022/04/19 08:01:27;;;;;;;8.80;5.50;;;;;;;-143.37;100.00;62585.38;5043204;28;20435;-77
2022/04/19 08:04:03;;;;;;;6.97;5.33;;;;;;;-143.37;100.00;62585.38;5025444;28;20447;-77
2022/04/19 08:06:38;;;;;;;7.60;6.47;;;;;;;-143.37;100.00;62585.38;5029805;28;20442;-77
2022/04/19 08:09:14;;;;;;;7.77;6.10;;;;;;;-143.37;100.00;62585.38;5008172;28;20450;-77
2022/04/19 08:11:51;;;;;;;6.30;5.40;;;;;;;-143.37;100.00;62585.38;5032782;28;20443;-77
2022/04/19 08:14:27;;;;;;;5.33;4.83;;;;;;;-143.37;100.00;62585.38;5011974;28;20446;-77
2022/04/19 08:17:14;;;;;;;7.07;5.73;;;;;;;-143.37;100.00;62585.38;5018588;28;20446;-77
2022/04/19 08:19:50;;;;;;;6.60;5.50;;;;;;;-143.37;100.00;62585.38;5041425;28;20480;-77
2022/04/19 08:22:26;;;;;;;7.07;5.40;;;;;;;-143.37;100.00;62585.38;5050294;28;20442;-77
2022/04/19 08:25:11;;;;;;;6.63;5.03;;;;;;;-143.37;100.00;62585.38;5054326;28;20437;-77
2022/04/19 08:27:48;;;;;;;5.03;4.53;;;;;;;-143.37;100.00;62585.38;5073043;28;20816;-77
2022/04/19 08:30:24;;;;;;;5.40;4.90;;;;;;;-143.37;100.00;62585.38;5051276;28;20437;-77
2022/04/19 08:33:02;;;;;;;5.33;4.80;;;;;;;-143.37;100.00;62585.38;5070002;28;20472;-77
2022/04/19 08:35:38;;;;;;;5.80;5.20;;;;;;;-143.37;100.00;62585.38;5068355;28;20438;-77
2022/04/19 08:38:13;;;;;;;6.13;5.20;;;;;;;-143.37;100.00;62585.38;5047911;28;20448;-77
2022/04/19 08:40:49;;;;;;;5.83;4.97;;;;;;;-143.37;100.00;62585.38;5052614;28;21016;-77
2022/04/19 08:43:25;;;;;;;4.20;3.80;;;;;;;-143.37;100.00;62585.38;5051222;28;20440;-77
2022/04/19 08:46:02;;;;;;;5.63;5.13;;;;;;;-143.37;100.00;62585.38;5051534;28;20467;-77
2022/04/19 08:48:41;;;;;;;5.83;5.20;;;;;;;-143.37;100.00;62585.38;5055677;28;20434;-77
2022/04/19 08:51:19;;;;;;;4.50;4.07;;;;;;;-143.37;100.00;62585.38;5054772;28;20851;-77
2022/04/19 08:59:42;;;;;;;5.03;3.50;;;;;;;-143.37;100.00;62585.38;5053943;28;20445;-77
2022/04/19 09:02:23;;;;;;;4.07;3.67;;;;;;;-143.37;100.00;62585.38;5066557;28;20494;-77
2022/04/19 09:05:14;;;;;;;5.77;3.70;;;;;;;-143.37;100.00;62585.38;5066935;28;20442;-76
2022/04/19 09:07:51;;;;;;;4.40;3.90;;;;;;;-143.37;100.00;62585.38;5063809;28;20524;-77
2022/04/19 09:10:29;;;;;;;4.80;4.20;;;;;;;-143.37;100.00;62585.38;5084762;28;20449;-76
2022/04/19 09:13:06;;;;;;;4.60;3.70;;;;;;;-143.37;100.00;62585.38;5065300;28;20477;-76
2022/04/19 09:15:42;;;;;;;7.93;4.23;;;;;;;-143.37;100.00;62585.38;5069739;28;20482;-76
2022/04/19 09:18:24;;;;;;;4.53;3.50;;;;;;;-143.37;100.00;62585.38;5052830;28;20945;-75
2022/04/19 09:21:02;;;;;;;9.53;4.37;;;;;;;-143.37;100.00;62585.38;5048524;28;20799;-76
2022/04/19 09:23:38;;;;;;;4.60;4.20;;;;;;;-143.37;100.00;62585.38;5068041;28;20435;-75
2022/04/19 09:26:14;;;;;;;4.80;4.17;;;;;;;-143.37;100.00;62585.38;5065599;28;20428;-75
2022/04/19 09:29:17;;;;;;;8.40;4.23;;;;;;;-143.37;100.00;62585.38;5055171;28;20453;-75
2022/04/19 09:32:02;;;;;;;4.03;3.33;;;;;;;-143.37;100.00;62585.38;5068640;28;20436;-75
2022/04/19 09:34:38;;;;;;;6.30;3.30;;;;;;;-143.37;100.00;62585.38;5067201;28;20430;-75
2022/04/19 09:37:15;;;;;;;3.83;3.43;;;;;;;-143.37;100.00;62585.38;5068794;28;20449;-76
2022/04/19 09:39:54;;;;;;;3.63;3.23;;;;;;;-143.37;100.00;62585.38;5083132;28;20441;-75
2022/04/19 09:42:30;;;;;;;3.33;3.03;;;;;;;-143.37;100.00;62585.38;5064408;28;20799;-75
2022/04/19 09:45:06;;;;;;;3.43;2.80;;;;;;;-143.37;100.00;62585.38;5068578;28;20425;-75
2022/04/19 09:47:50;;;;;;;3.20;2.70;;;;;;;-143.37;100.00;62585.38;5063818;28;20765;-75
2022/04/19 09:50:26;;;;;;;4.43;3.80;;;;;;;-143.37;100.00;62585.38;5081507;28;20547;-75
2022/04/19 09:53:03;;;;;;;4.33;3.93;;;;;;;-143.37;100.00;62585.38;5063423;28;20476;-74
2022/04/19 09:55:46;;;;;;;4.43;3.43;;;;;;;-143.37;100.00;62585.38;5062298;28;20457;-75
2022/04/19 09:58:23;;;;;;;5.60;4.23;;;;;;;-143.37;100.00;62585.38;5065263;28;20661;-74
2022/04/19 10:00:58;;;;;;;3.40;3.10;;;;;;;-143.37;100.00;62585.38;5060816;28;20974;-76
2022/04/19 10:09:23;;;;;;;5.53;3.63;;;;;;;-143.37;100.00;62585.38;5046648;28;20441;-76
2022/04/19 10:11:58;;;;;;;4.57;4.07;;;;;;;-143.37;100.00;62585.38;5060811;28;20442;-74
2022/04/19 10:14:35;;;;;;;3.10;2.70;;;;;;;-143.37;100.00;62585.38;5049910;28;20957;-75
2022/04/19 10:17:15;;;;;;;4.47;4.07;;;;;;;-143.37;100.00;62585.38;5060722;28;20478;-74
2022/04/19 10:19:53;;;;;;;4.40;3.40;;;;;;;-143.37;100.00;62585.38;5052375;28;20471;-76
2022/04/19 10:22:29;;;;;;;3.73;3.17;;;;;;;-143.37;100.00;62585.38;5056543;28;20438;-77
2022/04/19 10:28:38;;;;;;;3.73;3.37;;;;;;;-143.37;100.00;62585.38;5065268;28;20479;-75
2022/04/19 10:31:25;;;;;;;4.03;3.30;;;;;;;-143.37;100.00;62585.38;5030074;28;21031;-74
2022/04/19 10:34:11;;;;;;;4.73;3.67;;;;;;;-143.37;100.00;62585.38;5057826;28;20471;-76
2022/04/19 10:36:53;;;;;;;4.33;3.93;;;;;;;-143.37;100.00;62585.38;5014687;28;20494;-76
2022/04/19 10:39:32;;;;;;;5.20;3.80;;;;;;;-143.37;100.00;62585.38;5046861;28;20920;-75
2022/04/19 10:42:27;;;;;;;8.50;3.93;;;;;;;-143.37;100.00;62585.38;5048539;28;20525;-76
2022/04/19 10:45:20;;;;;;;3.77;3.37;;;;;;;-143.37;100.00;62585.38;5040868;28;21613;-76
2022/04/19 10:48:05;;;;;;;4.50;3.60;;;;;;;-143.37;100.00;62585.38;5029633;28;20430;-76
2022/04/19 10:50:45;;;;;;;4.67;4.17;;;;;;;-143.37;100.00;62585.38;5031822;28;20471;-75
2022/04/19 10:53:31;;;;;;;3.67;3.30;;;;;;;-143.37;100.00;62585.38;5032295;28;20462;-76
2022/04/19 10:56:07;;;;;;;3.50;3.00;;;;;;;-143.37;100.00;62585.38;5033073;28;20798;-74
2022/04/19 10:58:44;;;;;;;5.90;3.97;;;;;;;-143.37;100.00;62585.38;5031109;28;20446;-76
2022/04/19 11:01:30;;;;;;;4.90;3.50;;;;;;;-143.37;100.00;62585.38;5048195;28;20435;-74
2022/04/19 11:04:11;;;;;;;3.57;3.27;;;;;;;-143.37;100.00;62585.38;5025239;28;20454;-74
2022/04/19 11:06:47;;;;;;;4.50;4.00;;;;;;;-143.37;100.00;62585.38;5045910;28;20883;-74
2022/04/19 11:09:26;;;;;;;5.50;4.80;;;;;;;-143.37;100.00;62585.38;5031649;28;20574;-76
2022/04/19 11:12:09;;;;;;;4.60;3.90;;;;;;;-143.37;100.00;62585.38;5018836;28;20432;-76
2022/04/19 11:14:45;;;;;;;5.63;4.23;;;;;;;-143.37;100.00;62585.38;5033679;28;20817;-75
2022/04/19 11:17:27;;;;;;;7.03;4.80;;;;;;;-143.37;100.00;62585.38;5033616;28;20434;-75
2022/04/19 11:20:14;;;;;;;7.50;4.40;;;;;;;-143.37;100.00;62585.38;5018977;28;20450;-76
2022/04/19 11:22:52;;;;;;;6.20;4.17;;;;;;;-143.37;100.00;62585.38;5034178;28;20438;-75
2022/04/19 11:25:39;;;;;;;4.23;3.83;;;;;;;-143.37;100.00;62585.38;5017598;28;20496;-76
2022/04/19 11:28:29;;;;;;;5.30;4.63;;;;;;;-143.37;100.00;62585.38;5034816;28;20443;-73
2022/04/19 11:31:12;;;;;;;4.07;3.57;;;;;;;-143.37;100.00;62585.38;5055447;28;20429;-74
2022/04/19 11:33:48;;;;;;;7.90;5.00;;;;;;;-143.37;100.00;62585.38;5068846;28;20474;-74
2022/04/19 11:36:25;;;;;;;6.63;4.47;;;;;;;-143.37;100.00;62585.38;5042688;28;20533;-76
2022/04/19 11:39:01;;;;;;;5.00;4.27;;;;;;;-143.37;100.00;62585.38;5035137;28;20442;-74
2022/04/19 11:47:44;;;;;;;5.30;4.00;;;;;;;-143.37;100.00;62585.38;5073267;28;20600;-74
2022/04/19 11:50:25;;;;;;;4.47;3.70;;;;;;;-143.37;100.00;62585.38;5061585;28;20942;-74
2022/04/19 11:53:02;;;;;;;6.50;3.63;;;;;;;-143.37;100.00;62585.38;5076120;28;20470;-75
2022/04/19 11:55:38;;;;;;;5.53;3.80;;;;;;;-143.37;100.00;62585.38;5050720;28;20938;-75
2022/04/19 11:58:14;;;;;;;4.10;3.63;;;;;;;-143.37;100.00;62585.38;5062550;28;20445;-75
2022/04/19 12:01:01;;;;;;;4.13;3.70;;;;;;;-143.37;100.00;62585.38;5061627;28;20437;-75
2022/04/19 12:03:39;;;;;;;6.07;4.40;;;;;;;-143.37;100.00;62585.38;5060528;28;20787;-75
2022/04/19 12:06:16;;;;;;;4.00;3.60;;;;;;;-143.37;100.00;62585.38;5075534;28;20430;-75
2022/04/19 12:08:54;;;;;;;5.33;4.83;;;;;;;-143.37;100.00;62585.38;5063033;28;20464;-74
2022/04/19 12:11:31;;;;;;;5.53;3.97;;;;;;;-143.37;100.00;62585.38;5056105;28;20448;-75
2022/04/19 12:14:16;;;;;;;4.20;3.80;;;;;;;-143.37;100.00;62585.38;5056140;28;20461;-75
2022/04/19 12:16:59;;;;;;;5.93;4.70;;;;;;;-143.37;100.00;62585.38;5045342;28;20554;-75
2022/04/19 12:19:38;;;;;;;5.90;4.80;;;;;;;-143.37;100.00;62585.38;5050633;28;20458;-74
2022/04/19 12:22:16;;;;;;;7.13;4.60;;;;;;;-143.37;100.00;62585.38;5075475;28;20805;-75
2022/04/19 12:24:55;;;;;;;7.90;4.27;;;;;;;-143.37;100.00;62585.38;5079557;28;20444;-74
2022/04/19 12:27:33;;;;;;;5.20;4.47;;;;;;;-143.37;100.00;62585.38;5053782;28;20437;-73
2022/04/19 12:30:12;;;;;;;6.60;4.70;;;;;;;-143.37;100.00;62585.38;5058399;28;20438;-73
2022/04/19 12:32:53;;;;;;;5.87;4.37;;;;;;;-143.37;100.00;62585.38;5057376;28;20567;-75
2022/04/19 12:35:33;;;;;;;4.03;3.40;;;;;;;-143.37;100.00;62585.38;5040824;28;20821;-75
2022/04/19 12:38:13;;;;;;;4.93;3.70;;;;;;;-143.37;100.00;62585.38;5038517;28;20446;-74
2022/04/19 12:40:50;;;;;;;5.93;4.50;;;;;;;-143.37;100.00;62585.38;5057130;28;20895;-75
2022/04/19 12:43:46;;;;;;;4.63;3.67;;;;;;;-143.37;100.00;62585.38;5056089;28;20874;-74